Three Legged Cross, United Kingdom
Current Conditions -  °F | °C
As of 2:20 AM on Friday 21 Nov 2014 (Local Time) from EGHH Reporting Station
Haze Haze  
Wind Chill: 41°   Ceiling: Unl
Heat Index: 45°   Visibility: 3mi
Dew Point: 43°   Wind: 6mph
Humidity: 93%   Direction: 70°ENE
Pressure: 30.12"   Gusts: NA
Location:  50.85°N, 1.88°W
Report Text: EGHH 210220Z 07005KT 5000 BR SCT019 07/06 Q1020
Loading
Personal Weather Stations






























Interactive Weather Map New forecast layout! Learn more

10-Day Weather Forecast

Advertisements
Track Severe Weather on mobile